sensor_id;sensor_type;location;lat;lon;timestamp;P1;durP1;ratioP1;P2;durP2;ratioP2
15293;SDS011;74171;52.534;13.436;2023-12-20T00:02:33;6.60;;;6.00;;
15293;SDS011;74171;52.534;13.436;2023-12-20T00:05:23;6.73;;;6.03;;
15293;SDS011;74171;52.534;13.436;2023-12-20T00:15:12;7.30;;;5.87;;
15293;SDS011;74171;52.534;13.436;2023-12-20T00:18:08;6.77;;;6.07;;
15293;SDS011;74171;52.534;13.436;2023-12-20T00:21:25;8.13;;;6.47;;
15293;SDS011;74171;52.534;13.436;2023-12-20T00:24:29;6.93;;;5.80;;
15293;SDS011;74171;52.534;13.436;2023-12-20T00:27:37;6.20;;;5.60;;
15293;SDS011;74171;52.534;13.436;2023-12-20T00:37:40;6.60;;;5.90;;
15293;SDS011;74171;52.534;13.436;2023-12-20T00:40:11;6.20;;;5.47;;
15293;SDS011;74171;52.534;13.436;2023-12-20T00:43:01;6.03;;;5.43;;
15293;SDS011;74171;52.534;13.436;2023-12-20T00:45:53;5.93;;;5.33;;
15293;SDS011;74171;52.534;13.436;2023-12-20T00:48:41;7.23;;;5.27;;
15293;SDS011;74171;52.534;13.436;2023-12-20T00:51:32;6.50;;;5.90;;
15293;SDS011;74171;52.534;13.436;2023-12-20T00:54:08;6.53;;;5.80;;
15293;SDS011;74171;52.534;13.436;2023-12-20T00:57:04;5.53;;;5.03;;
15293;SDS011;74171;52.534;13.436;2023-12-20T00:59:38;6.00;;;5.37;;
15293;SDS011;74171;52.534;13.436;2023-12-20T01:02:23;6.27;;;5.53;;
15293;SDS011;74171;52.534;13.436;2023-12-20T01:05:18;6.90;;;5.50;;
15293;SDS011;74171;52.534;13.436;2023-12-20T01:07:59;6.07;;;5.47;;
15293;SDS011;74171;52.534;13.436;2023-12-20T01:10:55;6.00;;;5.40;;
15293;SDS011;74171;52.534;13.436;2023-12-20T01:13:29;8.03;;;6.03;;
15293;SDS011;74171;52.534;13.436;2023-12-20T01:16:32;6.63;;;5.97;;
15293;SDS011;74171;52.534;13.436;2023-12-20T01:19:09;5.87;;;5.27;;
15293;SDS011;74171;52.534;13.436;2023-12-20T01:25:20;6.27;;;5.67;;
15293;SDS011;74171;52.534;13.436;2023-12-20T01:28:26;6.40;;;5.80;;
15293;SDS011;74171;52.534;13.436;2023-12-20T01:31:22;6.80;;;5.90;;
15293;SDS011;74171;52.534;13.436;2023-12-20T01:36:47;6.83;;;6.13;;
15293;SDS011;74171;52.534;13.436;2023-12-20T01:39:46;7.30;;;5.87;;
15293;SDS011;74171;52.534;13.436;2023-12-20T01:43:04;7.00;;;6.30;;
15293;SDS011;74171;52.534;13.436;2023-12-20T01:52:52;5.57;;;5.07;;
15293;SDS011;74171;52.534;13.436;2023-12-20T01:55:43;6.03;;;5.17;;
15293;SDS011;74171;52.534;13.436;2023-12-20T01:58:37;5.97;;;5.37;;
15293;SDS011;74171;52.534;13.436;2023-12-20T02:01:47;5.87;;;5.27;;
15293;SDS011;74171;52.534;13.436;2023-12-20T02:04:53;6.07;;;4.60;;
15293;SDS011;74171;52.534;13.436;2023-12-20T02:08:03;4.80;;;4.30;;
15293;SDS011;74171;52.534;13.436;2023-12-20T02:11:00;4.80;;;4.03;;
15293;SDS011;74171;52.534;13.436;2023-12-20T02:13:57;6.67;;;3.90;;
15293;SDS011;74171;52.534;13.436;2023-12-20T02:16:53;3.57;;;3.27;;
15293;SDS011;74171;52.534;13.436;2023-12-20T02:19:27;3.17;;;2.87;;
15293;SDS011;74171;52.534;13.436;2023-12-20T02:25:29;2.83;;;2.30;;
15293;SDS011;74171;52.534;13.436;2023-12-20T02:28:05;9.33;;;3.30;;
15293;SDS011;74171;52.534;13.436;2023-12-20T02:30:43;4.93;;;2.27;;
15293;SDS011;74171;52.534;13.436;2023-12-20T02:33:32;14.67;;;8.67;;
15293;SDS011;74171;52.534;13.436;2023-12-20T02:36:19;7.13;;;4.93;;
15293;SDS011;74171;52.534;13.436;2023-12-20T02:38:51;7.27;;;3.87;;
15293;SDS011;74171;52.534;13.436;2023-12-20T03:02:43;9.33;;;6.03;;
15293;SDS011;74171;52.534;13.436;2023-12-20T03:05:15;14.47;;;6.53;;
15293;SDS011;74171;52.534;13.436;2023-12-20T03:07:53;8.97;;;4.93;;
15293;SDS011;74171;52.534;13.436;2023-12-20T03:10:46;9.30;;;5.20;;
15293;SDS011;74171;52.534;13.436;2023-12-20T03:13:20;10.93;;;5.40;;
15293;SDS011;74171;52.534;13.436;2023-12-20T03:16:16;7.47;;;4.30;;
15293;SDS011;74171;52.534;13.436;2023-12-20T03:24:55;9.87;;;4.70;;
15293;SDS011;74171;52.534;13.436;2023-12-20T03:27:31;6.17;;;3.70;;
15293;SDS011;74171;52.534;13.436;2023-12-20T03:30:38;7.50;;;2.90;;
15293;SDS011;74171;52.534;13.436;2023-12-20T03:33:21;9.70;;;3.50;;
15293;SDS011;74171;52.534;13.436;2023-12-20T03:36:09;6.97;;;4.00;;
15293;SDS011;74171;52.534;13.436;2023-12-20T03:38:43;10.43;;;4.70;;
15293;SDS011;74171;52.534;13.436;2023-12-20T03:41:17;5.77;;;3.07;;
15293;SDS011;74171;52.534;13.436;2023-12-20T03:44:03;7.10;;;3.30;;
15293;SDS011;74171;52.534;13.436;2023-12-20T03:46:44;10.37;;;3.50;;
15293;SDS011;74171;52.534;13.436;2023-12-20T03:49:20;6.03;;;3.70;;
15293;SDS011;74171;52.534;13.436;2023-12-20T03:52:04;5.13;;;3.20;;
15293;SDS011;74171;52.534;13.436;2023-12-20T03:54:51;9.50;;;3.70;;
15293;SDS011;74171;52.534;13.436;2023-12-20T03:57:33;11.67;;;3.13;;
15293;SDS011;74171;52.534;13.436;2023-12-20T04:00:14;7.07;;;2.90;;
15293;SDS011;74171;52.534;13.436;2023-12-20T04:02:57;6.97;;;2.80;;
15293;SDS011;74171;52.534;13.436;2023-12-20T04:05:26;5.83;;;2.70;;
15293;SDS011;74171;52.534;13.436;2023-12-20T04:07:55;8.23;;;3.47;;
15293;SDS011;74171;52.534;13.436;2023-12-20T04:10:32;5.67;;;2.87;;
15293;SDS011;74171;52.534;13.436;2023-12-20T04:13:02;6.03;;;2.50;;
15293;SDS011;74171;52.534;13.436;2023-12-20T04:18:23;6.40;;;2.80;;
15293;SDS011;74171;52.534;13.436;2023-12-20T04:21:07;5.10;;;2.40;;
15293;SDS011;74171;52.534;13.436;2023-12-20T04:23:36;7.17;;;2.37;;
15293;SDS011;74171;52.534;13.436;2023-12-20T04:26:16;10.73;;;2.93;;
15293;SDS011;74171;52.534;13.436;2023-12-20T04:28:48;9.13;;;2.30;;
15293;SDS011;74171;52.534;13.436;2023-12-20T04:31:39;8.20;;;3.27;;
15293;SDS011;74171;52.534;13.436;2023-12-20T04:34:23;11.67;;;2.83;;
15293;SDS011;74171;52.534;13.436;2023-12-20T04:36:56;7.03;;;2.63;;
15293;SDS011;74171;52.534;13.436;2023-12-20T04:39:28;6.33;;;1.80;;
15293;SDS011;74171;52.534;13.436;2023-12-20T04:42:27;6.70;;;2.30;;
15293;SDS011;74171;52.534;13.436;2023-12-20T04:45:00;9.90;;;2.60;;
15293;SDS011;74171;52.534;13.436;2023-12-20T04:47:45;8.27;;;2.53;;
15293;SDS011;74171;52.534;13.436;2023-12-20T04:50:21;12.50;;;2.90;;
15293;SDS011;74171;52.534;13.436;2023-12-20T04:52:50;9.20;;;2.10;;
15293;SDS011;74171;52.534;13.436;2023-12-20T04:55:25;6.93;;;3.23;;
15293;SDS011;74171;52.534;13.436;2023-12-20T04:57:58;12.80;;;3.17;;
15293;SDS011;74171;52.534;13.436;2023-12-20T05:00:34;9.43;;;2.67;;
15293;SDS011;74171;52.534;13.436;2023-12-20T05:03:07;9.03;;;2.47;;
15293;SDS011;74171;52.534;13.436;2023-12-20T05:08:37;10.80;;;3.83;;
15293;SDS011;74171;52.534;13.436;2023-12-20T05:11:13;8.70;;;2.97;;
15293;SDS011;74171;52.534;13.436;2023-12-20T05:13:44;8.77;;;3.33;;
15293;SDS011;74171;52.534;13.436;2023-12-20T12:27:42;9.27;;;3.07;;
15293;SDS011;74171;52.534;13.436;2023-12-20T12:33:20;10.17;;;3.23;;
15293;SDS011;74171;52.534;13.436;2023-12-20T12:36:08;9.90;;;2.70;;
15293;SDS011;74171;52.534;13.436;2023-12-20T12:38:58;8.37;;;3.30;;
15293;SDS011;74171;52.534;13.436;2023-12-20T12:41:47;9.90;;;3.10;;
15293;SDS011;74171;52.534;13.436;2023-12-20T12:50:58;9.80;;;3.17;;
15293;SDS011;74171;52.534;13.436;2023-12-20T12:53:27;7.23;;;3.33;;
15293;SDS011;74171;52.534;13.436;2023-12-20T12:56:16;11.77;;;3.00;;
15293;SDS011;74171;52.534;13.436;2023-12-20T12:59:00;10.13;;;3.80;;
15293;SDS011;74171;52.534;13.436;2023-12-20T13:01:32;8.10;;;3.37;;
15293;SDS011;74171;52.534;13.436;2023-12-20T13:04:06;7.30;;;3.13;;
15293;SDS011;74171;52.534;13.436;2023-12-20T13:13:03;11.30;;;3.40;;
15293;SDS011;74171;52.534;13.436;2023-12-20T13:15:45;7.43;;;3.47;;
15293;SDS011;74171;52.534;13.436;2023-12-20T13:18:19;10.50;;;4.30;;
15293;SDS011;74171;52.534;13.436;2023-12-20T13:20:48;9.10;;;3.37;;
15293;SDS011;74171;52.534;13.436;2023-12-20T13:23:16;7.30;;;3.37;;
15293;SDS011;74171;52.534;13.436;2023-12-20T13:25:46;8.13;;;2.80;;
15293;SDS011;74171;52.534;13.436;2023-12-20T13:28:16;5.80;;;2.70;;
15293;SDS011;74171;52.534;13.436;2023-12-20T13:30:51;3.63;;;2.13;;
15293;SDS011;74171;52.534;13.436;2023-12-20T13:33:21;4.40;;;1.83;;
15293;SDS011;74171;52.534;13.436;2023-12-20T13:35:49;1.97;;;1.80;;
15293;SDS011;74171;52.534;13.436;2023-12-20T13:38:18;3.17;;;2.00;;
15293;SDS011;74171;52.534;13.436;2023-12-20T13:40:46;4.33;;;1.57;;
15293;SDS011;74171;52.534;13.436;2023-12-20T13:43:15;6.37;;;2.47;;
15293;SDS011;74171;52.534;13.436;2023-12-20T13:45:47;4.43;;;2.03;;
15293;SDS011;74171;52.534;13.436;2023-12-20T13:48:18;3.53;;;1.87;;
15293;SDS011;74171;52.534;13.436;2023-12-20T13:50:52;3.07;;;1.97;;
15293;SDS011;74171;52.534;13.436;2023-12-20T13:53:22;2.73;;;2.13;;
15293;SDS011;74171;52.534;13.436;2023-12-20T13:55:54;3.83;;;1.90;;
15293;SDS011;74171;52.534;13.436;2023-12-20T13:58:23;2.93;;;2.60;;
15293;SDS011;74171;52.534;13.436;2023-12-20T14:00:51;2.50;;;1.90;;
15293;SDS011;74171;52.534;13.436;2023-12-20T14:03:21;4.30;;;2.77;;
15293;SDS011;74171;52.534;13.436;2023-12-20T14:05:51;3.37;;;2.40;;
15293;SDS011;74171;52.534;13.436;2023-12-20T14:08:19;4.20;;;2.23;;
15293;SDS011;74171;52.534;13.436;2023-12-20T14:10:49;3.60;;;2.53;;
15293;SDS011;74171;52.534;13.436;2023-12-20T14:13:18;6.23;;;3.40;;
15293;SDS011;74171;52.534;13.436;2023-12-20T14:15:49;2.57;;;1.77;;
15293;SDS011;74171;52.534;13.436;2023-12-20T14:18:18;4.83;;;2.33;;
15293;SDS011;74171;52.534;13.436;2023-12-20T14:20:47;5.03;;;2.10;;
15293;SDS011;74171;52.534;13.436;2023-12-20T14:23:19;3.40;;;2.23;;
15293;SDS011;74171;52.534;13.436;2023-12-20T14:25:47;4.53;;;2.07;;
15293;SDS011;74171;52.534;13.436;2023-12-20T14:28:18;5.50;;;2.67;;
15293;SDS011;74171;52.534;13.436;2023-12-20T14:30:53;3.67;;;2.87;;
15293;SDS011;74171;52.534;13.436;2023-12-20T14:33:23;2.63;;;1.50;;
15293;SDS011;74171;52.534;13.436;2023-12-20T14:35:52;3.77;;;1.50;;
15293;SDS011;74171;52.534;13.436;2023-12-20T14:38:22;1.73;;;1.43;;
15293;SDS011;74171;52.534;13.436;2023-12-20T14:40:52;3.57;;;2.07;;
15293;SDS011;74171;52.534;13.436;2023-12-20T14:43:23;1.57;;;1.47;;
15293;SDS011;74171;52.534;13.436;2023-12-20T14:45:53;4.47;;;2.03;;
15293;SDS011;74171;52.534;13.436;2023-12-20T14:48:21;4.33;;;2.70;;
15293;SDS011;74171;52.534;13.436;2023-12-20T14:50:49;4.93;;;2.77;;
15293;SDS011;74171;52.534;13.436;2023-12-20T14:53:19;4.30;;;1.93;;
15293;SDS011;74171;52.534;13.436;2023-12-20T14:55:49;5.17;;;1.70;;
15293;SDS011;74171;52.534;13.436;2023-12-20T14:58:17;2.33;;;2.00;;
15293;SDS011;74171;52.534;13.436;2023-12-20T15:00:45;5.20;;;1.83;;
15293;SDS011;74171;52.534;13.436;2023-12-20T15:03:15;2.97;;;1.57;;
15293;SDS011;74171;52.534;13.436;2023-12-20T15:05:44;3.93;;;2.63;;
15293;SDS011;74171;52.534;13.436;2023-12-20T15:08:14;5.30;;;3.07;;
15293;SDS011;74171;52.534;13.436;2023-12-20T15:10:42;5.40;;;2.17;;
15293;SDS011;74171;52.534;13.436;2023-12-20T15:13:10;6.33;;;2.40;;
15293;SDS011;74171;52.534;13.436;2023-12-20T15:15:43;4.70;;;2.37;;
15293;SDS011;74171;52.534;13.436;2023-12-20T15:18:12;1.97;;;1.77;;
15293;SDS011;74171;52.534;13.436;2023-12-20T15:20:42;4.70;;;2.20;;
15293;SDS011;74171;52.534;13.436;2023-12-20T15:23:12;4.53;;;2.17;;
15293;SDS011;74171;52.534;13.436;2023-12-20T15:25:57;5.07;;;2.67;;
15293;SDS011;74171;52.534;13.436;2023-12-20T15:28:29;3.07;;;1.90;;
15293;SDS011;74171;52.534;13.436;2023-12-20T15:30:58;2.60;;;1.93;;
15293;SDS011;74171;52.534;13.436;2023-12-20T15:33:26;8.03;;;2.27;;
15293;SDS011;74171;52.534;13.436;2023-12-20T15:35:56;5.70;;;2.40;;
15293;SDS011;74171;52.534;13.436;2023-12-20T15:38:24;4.30;;;2.23;;
15293;SDS011;74171;52.534;13.436;2023-12-20T15:40:52;9.63;;;2.50;;
15293;SDS011;74171;52.534;13.436;2023-12-20T15:43:24;5.03;;;2.00;;
15293;SDS011;74171;52.534;13.436;2023-12-20T15:45:53;5.03;;;2.40;;
15293;SDS011;74171;52.534;13.436;2023-12-20T15:48:21;4.00;;;1.93;;
15293;SDS011;74171;52.534;13.436;2023-12-20T15:50:57;3.57;;;2.10;;
15293;SDS011;74171;52.534;13.436;2023-12-20T15:53:25;6.23;;;2.47;;
15293;SDS011;74171;52.534;13.436;2023-12-20T15:55:53;7.97;;;2.90;;
15293;SDS011;74171;52.534;13.436;2023-12-20T15:58:21;5.80;;;2.80;;
15293;SDS011;74171;52.534;13.436;2023-12-20T16:00:49;4.53;;;2.20;;
15293;SDS011;74171;52.534;13.436;2023-12-20T16:03:17;3.00;;;2.00;;
15293;SDS011;74171;52.534;13.436;2023-12-20T16:05:51;4.13;;;2.30;;
15293;SDS011;74171;52.534;13.436;2023-12-20T16:08:22;9.67;;;3.23;;
15293;SDS011;74171;52.534;13.436;2023-12-20T16:10:51;6.97;;;2.50;;
15293;SDS011;74171;52.534;13.436;2023-12-20T16:13:24;2.37;;;2.10;;
15293;SDS011;74171;52.534;13.436;2023-12-20T16:15:53;6.23;;;2.80;;
15293;SDS011;74171;52.534;13.436;2023-12-20T16:18:22;5.33;;;2.00;;
15293;SDS011;74171;52.534;13.436;2023-12-20T16:20:50;4.83;;;1.97;;
15293;SDS011;74171;52.534;13.436;2023-12-20T16:23:19;3.80;;;2.03;;
15293;SDS011;74171;52.534;13.436;2023-12-20T16:25:49;6.07;;;1.93;;
15293;SDS011;74171;52.534;13.436;2023-12-20T16:28:17;3.87;;;2.27;;
15293;SDS011;74171;52.534;13.436;2023-12-20T16:30:45;5.20;;;2.10;;
15293;SDS011;74171;52.534;13.436;2023-12-20T16:33:17;5.93;;;2.50;;
15293;SDS011;74171;52.534;13.436;2023-12-20T16:35:46;8.07;;;3.10;;
15293;SDS011;74171;52.534;13.436;2023-12-20T16:38:15;8.10;;;2.30;;
15293;SDS011;74171;52.534;13.436;2023-12-20T16:40:57;9.27;;;2.90;;
15293;SDS011;74171;52.534;13.436;2023-12-20T16:43:25;7.20;;;2.70;;
15293;SDS011;74171;52.534;13.436;2023-12-20T16:45:57;5.13;;;2.60;;
15293;SDS011;74171;52.534;13.436;2023-12-20T16:48:25;4.13;;;2.67;;
15293;SDS011;74171;52.534;13.436;2023-12-20T16:50:52;6.80;;;2.60;;
15293;SDS011;74171;52.534;13.436;2023-12-20T16:53:22;8.10;;;2.90;;
15293;SDS011;74171;52.534;13.436;2023-12-20T16:55:50;6.80;;;2.40;;
15293;SDS011;74171;52.534;13.436;2023-12-20T16:58:27;8.93;;;2.30;;
15293;SDS011;74171;52.534;13.436;2023-12-20T17:00:55;5.20;;;2.30;;
15293;SDS011;74171;52.534;13.436;2023-12-20T17:03:25;5.87;;;2.70;;
15293;SDS011;74171;52.534;13.436;2023-12-20T17:05:53;7.53;;;2.93;;
15293;SDS011;74171;52.534;13.436;2023-12-20T17:08:23;6.50;;;2.80;;
15293;SDS011;74171;52.534;13.436;2023-12-20T17:10:53;5.97;;;3.43;;
15293;SDS011;74171;52.534;13.436;2023-12-20T17:13:24;10.43;;;2.63;;
15293;SDS011;74171;52.534;13.436;2023-12-20T17:15:54;5.00;;;2.83;;
15293;SDS011;74171;52.534;13.436;2023-12-20T17:18:23;4.97;;;2.60;;
15293;SDS011;74171;52.534;13.436;2023-12-20T17:20:52;12.17;;;3.17;;
15293;SDS011;74171;52.534;13.436;2023-12-20T17:23:20;7.43;;;2.53;;
15293;SDS011;74171;52.534;13.436;2023-12-20T17:25:48;5.17;;;2.40;;
15293;SDS011;74171;52.534;13.436;2023-12-20T17:28:16;6.23;;;3.10;;
15293;SDS011;74171;52.534;13.436;2023-12-20T17:30:48;8.93;;;3.70;;
15293;SDS011;74171;52.534;13.436;2023-12-20T17:33:20;7.17;;;2.87;;
15293;SDS011;74171;52.534;13.436;2023-12-20T17:35:50;10.77;;;3.07;;
15293;SDS011;74171;52.534;13.436;2023-12-20T17:38:22;11.30;;;5.23;;
15293;SDS011;74171;52.534;13.436;2023-12-20T17:40:52;8.33;;;3.30;;
15293;SDS011;74171;52.534;13.436;2023-12-20T17:43:34;7.03;;;2.87;;
15293;SDS011;74171;52.534;13.436;2023-12-20T17:46:02;7.23;;;3.30;;
15293;SDS011;74171;52.534;13.436;2023-12-20T17:48:32;5.77;;;2.90;;
15293;SDS011;74171;52.534;13.436;2023-12-20T17:51:08;8.00;;;3.00;;
15293;SDS011;74171;52.534;13.436;2023-12-20T17:53:36;5.50;;;3.17;;
15293;SDS011;74171;52.534;13.436;2023-12-20T17:56:06;14.43;;;3.23;;
15293;SDS011;74171;52.534;13.436;2023-12-20T17:58:34;11.87;;;3.63;;
15293;SDS011;74171;52.534;13.436;2023-12-20T18:01:02;9.13;;;4.80;;
15293;SDS011;74171;52.534;13.436;2023-12-20T18:03:35;12.27;;;4.40;;
15293;SDS011;74171;52.534;13.436;2023-12-20T18:06:03;8.60;;;3.23;;
15293;SDS011;74171;52.534;13.436;2023-12-20T18:08:31;8.77;;;3.37;;
15293;SDS011;74171;52.534;13.436;2023-12-20T18:10:59;10.83;;;4.93;;
15293;SDS011;74171;52.534;13.436;2023-12-20T18:13:37;9.57;;;3.87;;
15293;SDS011;74171;52.534;13.436;2023-12-20T18:16:05;9.07;;;3.30;;
15293;SDS011;74171;52.534;13.436;2023-12-20T18:18:39;5.20;;;2.90;;
15293;SDS011;74171;52.534;13.436;2023-12-20T18:21:08;11.63;;;3.37;;
15293;SDS011;74171;52.534;13.436;2023-12-20T18:23:36;12.67;;;2.97;;
15293;SDS011;74171;52.534;13.436;2023-12-20T18:26:04;11.53;;;3.10;;
15293;SDS011;74171;52.534;13.436;2023-12-20T18:28:37;13.00;;;4.30;;
15293;SDS011;74171;52.534;13.436;2023-12-20T18:31:04;12.47;;;4.10;;
15293;SDS011;74171;52.534;13.436;2023-12-20T18:33:35;13.40;;;4.93;;
15293;SDS011;74171;52.534;13.436;2023-12-20T18:36:18;9.73;;;3.53;;
15293;SDS011;74171;52.534;13.436;2023-12-20T18:38:47;10.10;;;3.70;;
15293;SDS011;74171;52.534;13.436;2023-12-20T18:41:15;9.07;;;3.40;;
15293;SDS011;74171;52.534;13.436;2023-12-20T18:43:44;10.47;;;3.60;;
15293;SDS011;74171;52.534;13.436;2023-12-20T18:46:12;6.67;;;3.00;;
15293;SDS011;74171;52.534;13.436;2023-12-20T18:48:41;11.47;;;3.93;;
15293;SDS011;74171;52.534;13.436;2023-12-20T18:51:11;13.67;;;3.57;;
15293;SDS011;74171;52.534;13.436;2023-12-20T18:53:42;14.77;;;4.33;;
15293;SDS011;74171;52.534;13.436;2023-12-20T18:56:11;14.67;;;3.23;;
15293;SDS011;74171;52.534;13.436;2023-12-20T18:58:38;16.43;;;5.17;;
15293;SDS011;74171;52.534;13.436;2023-12-20T19:01:06;13.13;;;4.27;;
15293;SDS011;74171;52.534;13.436;2023-12-20T19:03:34;11.60;;;3.63;;
15293;SDS011;74171;52.534;13.436;2023-12-20T19:06:06;10.90;;;3.67;;
15293;SDS011;74171;52.534;13.436;2023-12-20T19:08:35;11.70;;;3.80;;
15293;SDS011;74171;52.534;13.436;2023-12-20T19:11:11;12.00;;;4.30;;
15293;SDS011;74171;52.534;13.436;2023-12-20T19:13:40;9.13;;;4.00;;
15293;SDS011;74171;52.534;13.436;2023-12-20T19:16:07;7.97;;;3.20;;
15293;SDS011;74171;52.534;13.436;2023-12-20T19:18:37;8.43;;;3.20;;
15293;SDS011;74171;52.534;13.436;2023-12-20T19:21:05;10.80;;;4.07;;
15293;SDS011;74171;52.534;13.436;2023-12-20T19:23:38;10.37;;;3.87;;
15293;SDS011;74171;52.534;13.436;2023-12-20T19:26:11;10.20;;;3.23;;
15293;SDS011;74171;52.534;13.436;2023-12-20T19:28:40;7.67;;;3.07;;
15293;SDS011;74171;52.534;13.436;2023-12-20T19:31:10;8.60;;;3.37;;
15293;SDS011;74171;52.534;13.436;2023-12-20T19:33:38;8.60;;;2.93;;
15293;SDS011;74171;52.534;13.436;2023-12-20T19:36:08;8.17;;;3.20;;
15293;SDS011;74171;52.534;13.436;2023-12-20T19:38:41;7.53;;;2.90;;
15293;SDS011;74171;52.534;13.436;2023-12-20T19:41:25;6.20;;;3.07;;
15293;SDS011;74171;52.534;13.436;2023-12-20T19:43:53;9.67;;;3.60;;
15293;SDS011;74171;52.534;13.436;2023-12-20T19:46:24;10.20;;;3.33;;
15293;SDS011;74171;52.534;13.436;2023-12-20T19:48:57;8.73;;;2.90;;
15293;SDS011;74171;52.534;13.436;2023-12-20T19:51:25;9.33;;;3.20;;
15293;SDS011;74171;52.534;13.436;2023-12-20T19:53:53;13.87;;;5.10;;
15293;SDS011;74171;52.534;13.436;2023-12-20T19:56:22;6.43;;;2.90;;
15293;SDS011;74171;52.534;13.436;2023-12-20T19:58:54;10.30;;;3.07;;
15293;SDS011;74171;52.534;13.436;2023-12-20T20:01:22;6.57;;;3.03;;
15293;SDS011;74171;52.534;13.436;2023-12-20T20:03:49;7.03;;;3.23;;
15293;SDS011;74171;52.534;13.436;2023-12-20T20:06:18;9.83;;;2.57;;
15293;SDS011;74171;52.534;13.436;2023-12-20T20:08:47;9.90;;;4.20;;
15293;SDS011;74171;52.534;13.436;2023-12-20T20:11:15;16.07;;;7.37;;
15293;SDS011;74171;52.534;13.436;2023-12-20T20:13:59;7.33;;;3.20;;
15293;SDS011;74171;52.534;13.436;2023-12-20T20:16:27;4.63;;;2.87;;
15293;SDS011;74171;52.534;13.436;2023-12-20T20:18:55;9.33;;;3.30;;
15293;SDS011;74171;52.534;13.436;2023-12-20T20:21:25;9.23;;;3.87;;
15293;SDS011;74171;52.534;13.436;2023-12-20T20:23:53;11.27;;;2.80;;
15293;SDS011;74171;52.534;13.436;2023-12-20T20:26:21;8.83;;;3.87;;
15293;SDS011;74171;52.534;13.436;2023-12-20T20:28:48;6.33;;;3.23;;
15293;SDS011;74171;52.534;13.436;2023-12-20T20:31:18;6.40;;;3.37;;
15293;SDS011;74171;52.534;13.436;2023-12-20T20:33:49;8.97;;;3.17;;
15293;SDS011;74171;52.534;13.436;2023-12-20T20:36:18;11.50;;;3.00;;
15293;SDS011;74171;52.534;13.436;2023-12-20T20:38:46;7.03;;;3.00;;
15293;SDS011;74171;52.534;13.436;2023-12-20T20:41:13;8.47;;;2.77;;
15293;SDS011;74171;52.534;13.436;2023-12-20T20:43:41;7.87;;;2.87;;
15293;SDS011;74171;52.534;13.436;2023-12-20T20:46:09;8.07;;;2.53;;
15293;SDS011;74171;52.534;13.436;2023-12-20T20:48:39;7.40;;;2.73;;
15293;SDS011;74171;52.534;13.436;2023-12-20T20:51:19;6.87;;;2.30;;
15293;SDS011;74171;52.534;13.436;2023-12-20T20:53:47;6.70;;;2.70;;
15293;SDS011;74171;52.534;13.436;2023-12-20T20:56:26;7.57;;;2.43;;
15293;SDS011;74171;52.534;13.436;2023-12-20T20:58:55;5.03;;;2.47;;
15293;SDS011;74171;52.534;13.436;2023-12-20T21:01:23;11.00;;;2.53;;
15293;SDS011;74171;52.534;13.436;2023-12-20T21:03:55;7.23;;;2.40;;
15293;SDS011;74171;52.534;13.436;2023-12-20T21:06:23;4.97;;;2.37;;
15293;SDS011;74171;52.534;13.436;2023-12-20T21:08:55;9.80;;;2.37;;
15293;SDS011;74171;52.534;13.436;2023-12-20T21:11:23;4.60;;;2.30;;
15293;SDS011;74171;52.534;13.436;2023-12-20T21:13:54;4.73;;;2.60;;
15293;SDS011;74171;52.534;13.436;2023-12-20T21:16:22;9.57;;;2.60;;
15293;SDS011;74171;52.534;13.436;2023-12-20T21:18:50;4.87;;;2.23;;
15293;SDS011;74171;52.534;13.436;2023-12-20T21:21:21;8.47;;;3.30;;
15293;SDS011;74171;52.534;13.436;2023-12-20T21:23:50;3.73;;;2.30;;
15293;SDS011;74171;52.534;13.436;2023-12-20T21:26:18;8.87;;;2.60;;
15293;SDS011;74171;52.534;13.436;2023-12-20T21:28:47;5.23;;;2.90;;
15293;SDS011;74171;52.534;13.436;2023-12-20T21:31:16;3.83;;;2.53;;
15293;SDS011;74171;52.534;13.436;2023-12-20T21:33:47;5.37;;;2.60;;
15293;SDS011;74171;52.534;13.436;2023-12-20T21:36:19;3.63;;;2.03;;
15293;SDS011;74171;52.534;13.436;2023-12-20T21:38:49;6.70;;;2.17;;
15293;SDS011;74171;52.534;13.436;2023-12-20T21:41:17;4.07;;;2.10;;
15293;SDS011;74171;52.534;13.436;2023-12-20T21:43:49;9.37;;;4.80;;
15293;SDS011;74171;52.534;13.436;2023-12-20T21:46:26;5.47;;;2.70;;
15293;SDS011;74171;52.534;13.436;2023-12-20T21:48:56;6.23;;;3.47;;
15293;SDS011;74171;52.534;13.436;2023-12-20T21:51:30;4.23;;;2.30;;
15293;SDS011;74171;52.534;13.436;2023-12-20T21:54:00;5.10;;;2.37;;
15293;SDS011;74171;52.534;13.436;2023-12-20T21:56:30;4.93;;;2.50;;
15293;SDS011;74171;52.534;13.436;2023-12-20T21:59:11;3.57;;;2.17;;
15293;SDS011;74171;52.534;13.436;2023-12-20T22:01:43;3.90;;;2.70;;
15293;SDS011;74171;52.534;13.436;2023-12-20T22:04:11;6.53;;;2.43;;
15293;SDS011;74171;52.534;13.436;2023-12-20T22:06:39;8.23;;;2.67;;
15293;SDS011;74171;52.534;13.436;2023-12-20T22:09:09;6.40;;;2.30;;
15293;SDS011;74171;52.534;13.436;2023-12-20T22:11:46;6.43;;;2.70;;
15293;SDS011;74171;52.534;13.436;2023-12-20T22:14:14;6.43;;;2.70;;
15293;SDS011;74171;52.534;13.436;2023-12-20T22:16:42;3.57;;;2.20;;
15293;SDS011;74171;52.534;13.436;2023-12-20T22:19:10;5.80;;;3.03;;
15293;SDS011;74171;52.534;13.436;2023-12-20T22:21:46;3.90;;;2.40;;
15293;SDS011;74171;52.534;13.436;2023-12-20T22:24:18;5.03;;;2.30;;
15293;SDS011;74171;52.534;13.436;2023-12-20T22:26:47;4.23;;;1.97;;
15293;SDS011;74171;52.534;13.436;2023-12-20T22:29:15;4.17;;;2.13;;
15293;SDS011;74171;52.534;13.436;2023-12-20T22:31:44;3.83;;;2.03;;
15293;SDS011;74171;52.534;13.436;2023-12-20T22:34:13;4.23;;;2.07;;
15293;SDS011;74171;52.534;13.436;2023-12-20T22:36:41;6.90;;;2.10;;
15293;SDS011;74171;52.534;13.436;2023-12-20T22:39:10;3.50;;;2.00;;
15293;SDS011;74171;52.534;13.436;2023-12-20T22:41:41;3.13;;;1.90;;
15293;SDS011;74171;52.534;13.436;2023-12-20T22:44:10;4.23;;;1.80;;
15293;SDS011;74171;52.534;13.436;2023-12-20T22:46:39;3.27;;;2.10;;
15293;SDS011;74171;52.534;13.436;2023-12-20T22:49:07;4.93;;;1.90;;
15293;SDS011;74171;52.534;13.436;2023-12-20T22:51:35;2.90;;;2.17;;
15293;SDS011;74171;52.534;13.436;2023-12-20T22:54:03;2.83;;;1.83;;
15293;SDS011;74171;52.534;13.436;2023-12-20T22:56:31;5.83;;;2.10;;
15293;SDS011;74171;52.534;13.436;2023-12-20T22:59:01;3.07;;;2.00;;
15293;SDS011;74171;52.534;13.436;2023-12-20T23:01:29;3.37;;;1.97;;
15293;SDS011;74171;52.534;13.436;2023-12-20T23:03:57;2.73;;;2.00;;
15293;SDS011;74171;52.534;13.436;2023-12-20T23:06:25;3.67;;;2.10;;
15293;SDS011;74171;52.534;13.436;2023-12-20T23:08:54;2.50;;;1.83;;
15293;SDS011;74171;52.534;13.436;2023-12-20T23:11:23;4.93;;;2.20;;
15293;SDS011;74171;52.534;13.436;2023-12-20T23:13:51;14.63;;;2.60;;
15293;SDS011;74171;52.534;13.436;2023-12-20T23:16:33;4.90;;;2.40;;
15293;SDS011;74171;52.534;13.436;2023-12-20T23:19:01;2.23;;;1.70;;
15293;SDS011;74171;52.534;13.436;2023-12-20T23:21:29;4.13;;;2.10;;
15293;SDS011;74171;52.534;13.436;2023-12-20T23:23:57;8.57;;;4.10;;
15293;SDS011;74171;52.534;13.436;2023-12-20T23:29:04;4.57;;;2.33;;
15293;SDS011;74171;52.534;13.436;2023-12-20T23:31:34;4.37;;;2.27;;
15293;SDS011;74171;52.534;13.436;2023-12-20T23:34:02;5.50;;;2.40;;
15293;SDS011;74171;52.534;13.436;2023-12-20T23:36:30;3.33;;;2.23;;
15293;SDS011;74171;52.534;13.436;2023-12-20T23:38:58;2.73;;;1.93;;
15293;SDS011;74171;52.534;13.436;2023-12-20T23:41:26;5.67;;;2.37;;
15293;SDS011;74171;52.534;13.436;2023-12-20T23:43:55;2.73;;;2.40;;
15293;SDS011;74171;52.534;13.436;2023-12-20T23:46:22;2.77;;;2.53;;
15293;SDS011;74171;52.534;13.436;2023-12-20T23:48:51;3.17;;;2.43;;